sensor_id;sensor_type;location;lat;lon;timestamp;pressure;altitude;pressure_sealevel;temperature;humidity
8653;BME280;4364;52.426;9.424;2023-04-20T00:00:54;101621.81;;;6.51;72.38
8653;BME280;4364;52.426;9.424;2023-04-20T00:03:21;101621.81;;;6.51;72.58
8653;BME280;4364;52.426;9.424;2023-04-20T00:05:48;101606.06;;;6.47;71.94
8653;BME280;4364;52.426;9.424;2023-04-20T00:08:15;101617.31;;;6.44;72.02
8653;BME280;4364;52.426;9.424;2023-04-20T00:10:45;101606.00;;;6.36;72.50
8653;BME280;4364;52.426;9.424;2023-04-20T00:13:12;101607.44;;;6.38;72.45
8653;BME280;4364;52.426;9.424;2023-04-20T00:15:38;101604.75;;;6.38;73.00
8653;BME280;4364;52.426;9.424;2023-04-20T00:18:05;101601.84;;;6.33;71.74
8653;BME280;4364;52.426;9.424;2023-04-20T00:20:32;101601.84;;;6.33;71.55
8653;BME280;4364;52.426;9.424;2023-04-20T00:22:58;101596.09;;;6.29;71.57
8653;BME280;4364;52.426;9.424;2023-04-20T00:25:25;101593.25;;;6.24;71.85
8653;BME280;4364;52.426;9.424;2023-04-20T00:27:51;101598.72;;;6.18;72.51
8653;BME280;4364;52.426;9.424;2023-04-20T00:30:18;101596.94;;;6.11;72.69
8653;BME280;4364;52.426;9.424;2023-04-20T00:32:44;101590.63;;;6.18;72.53
8653;BME280;4364;52.426;9.424;2023-04-20T00:35:12;101588.38;;;6.15;72.97
8653;BME280;4364;52.426;9.424;2023-04-20T00:37:39;101578.09;;;6.23;72.79
8653;BME280;4364;52.426;9.424;2023-04-20T00:40:06;101575.09;;;6.13;73.16
8653;BME280;4364;52.426;9.424;2023-04-20T00:42:32;101562.56;;;6.19;73.31
8653;BME280;4364;52.426;9.424;2023-04-20T00:45:00;101556.34;;;6.18;73.16
8653;BME280;4364;52.426;9.424;2023-04-20T00:47:27;101555.97;;;6.15;72.48
8653;BME280;4364;52.426;9.424;2023-04-20T00:49:53;101558.44;;;6.16;73.22
8653;BME280;4364;52.426;9.424;2023-04-20T00:52:20;101565.44;;;6.05;73.42
8653;BME280;4364;52.426;9.424;2023-04-20T00:54:47;101566.53;;;6.16;72.65
8653;BME280;4364;52.426;9.424;2023-04-20T00:57:17;101555.16;;;6.14;72.69
8653;BME280;4364;52.426;9.424;2023-04-20T00:59:45;101558.00;;;6.19;72.22
8653;BME280;4364;52.426;9.424;2023-04-20T01:02:12;101548.09;;;6.13;72.44
8653;BME280;4364;52.426;9.424;2023-04-20T01:04:40;101543.91;;;6.17;72.45
8653;BME280;4364;52.426;9.424;2023-04-20T01:07:06;101547.84;;;6.15;72.63
8653;BME280;4364;52.426;9.424;2023-04-20T01:09:33;101543.66;;;6.19;72.74
8653;BME280;4364;52.426;9.424;2023-04-20T01:12:00;101539.66;;;6.21;72.69
8653;BME280;4364;52.426;9.424;2023-04-20T01:14:28;101548.34;;;6.11;73.38
8653;BME280;4364;52.426;9.424;2023-04-20T01:16:55;101538.78;;;6.09;73.25
8653;BME280;4364;52.426;9.424;2023-04-20T01:19:21;101536.69;;;6.11;73.63
8653;BME280;4364;52.426;9.424;2023-04-20T01:21:48;101537.00;;;6.03;74.37
8653;BME280;4364;52.426;9.424;2023-04-20T01:24:14;101522.94;;;5.94;74.75
8653;BME280;4364;52.426;9.424;2023-04-20T01:26:41;101533.59;;;5.89;75.42
8653;BME280;4364;52.426;9.424;2023-04-20T01:29:07;101529.78;;;5.78;76.44
8653;BME280;4364;52.426;9.424;2023-04-20T01:31:34;101533.38;;;5.72;77.14
8653;BME280;4364;52.426;9.424;2023-04-20T01:34:01;101530.91;;;5.70;76.92
8653;BME280;4364;52.426;9.424;2023-04-20T01:36:27;101518.88;;;5.48;78.56
8653;BME280;4364;52.426;9.424;2023-04-20T01:38:55;101517.31;;;5.40;79.20
8653;BME280;4364;52.426;9.424;2023-04-20T01:41:21;101522.59;;;5.28;79.94
8653;BME280;4364;52.426;9.424;2023-04-20T01:43:48;101519.78;;;5.42;79.72
8653;BME280;4364;52.426;9.424;2023-04-20T01:46:14;101526.44;;;5.39;80.11
8653;BME280;4364;52.426;9.424;2023-04-20T01:48:41;101520.44;;;5.37;80.26
8653;BME280;4364;52.426;9.424;2023-04-20T01:51:07;101513.38;;;5.36;80.79
8653;BME280;4364;52.426;9.424;2023-04-20T01:53:34;101506.13;;;5.36;81.14
8653;BME280;4364;52.426;9.424;2023-04-20T01:56:01;101521.19;;;5.44;80.85
8653;BME280;4364;52.426;9.424;2023-04-20T01:58:27;101512.72;;;5.41;80.42
8653;BME280;4364;52.426;9.424;2023-04-20T02:00:54;101512.72;;;5.41;80.45
8653;BME280;4364;52.426;9.424;2023-04-20T02:03:21;101508.13;;;5.41;80.10
8653;BME280;4364;52.426;9.424;2023-04-20T02:05:47;101501.50;;;5.44;80.54
8653;BME280;4364;52.426;9.424;2023-04-20T02:08:14;101501.88;;;5.47;80.70
8653;BME280;4364;52.426;9.424;2023-04-20T02:10:41;101504.50;;;5.54;80.30
8653;BME280;4364;52.426;9.424;2023-04-20T02:13:07;101491.88;;;5.48;80.68
8653;BME280;4364;52.426;9.424;2023-04-20T02:15:34;101503.16;;;5.45;80.75
8653;BME280;4364;52.426;9.424;2023-04-20T02:18:00;101498.88;;;5.37;81.62
8653;BME280;4364;52.426;9.424;2023-04-20T02:20:27;101501.94;;;5.41;81.16
8653;BME280;4364;52.426;9.424;2023-04-20T02:22:53;101500.13;;;5.34;81.93
8653;BME280;4364;52.426;9.424;2023-04-20T02:25:20;101494.66;;;5.41;81.57
8653;BME280;4364;52.426;9.424;2023-04-20T02:27:47;101487.56;;;5.47;81.69
8653;BME280;4364;52.426;9.424;2023-04-20T02:30:13;101492.09;;;5.28;82.23
8653;BME280;4364;52.426;9.424;2023-04-20T02:32:41;101487.91;;;5.32;82.19
8653;BME280;4364;52.426;9.424;2023-04-20T02:35:08;101490.25;;;5.28;82.48
8653;BME280;4364;52.426;9.424;2023-04-20T02:37:34;101487.09;;;5.31;82.51
8653;BME280;4364;52.426;9.424;2023-04-20T02:40:03;101482.31;;;5.33;82.95
8653;BME280;4364;52.426;9.424;2023-04-20T02:42:30;101487.25;;;5.36;83.04
8653;BME280;4364;52.426;9.424;2023-04-20T02:44:59;101481.47;;;5.33;82.91
8653;BME280;4364;52.426;9.424;2023-04-20T02:47:26;101485.00;;;5.33;83.08
8653;BME280;4364;52.426;9.424;2023-04-20T02:49:53;101491.97;;;5.41;82.75
8653;BME280;4364;52.426;9.424;2023-04-20T02:52:19;101490.91;;;5.42;83.11
8653;BME280;4364;52.426;9.424;2023-04-20T02:54:46;101494.66;;;5.41;82.65
8653;BME280;4364;52.426;9.424;2023-04-20T02:57:13;101499.47;;;5.39;82.98
8653;BME280;4364;52.426;9.424;2023-04-20T02:59:39;101490.31;;;5.40;82.74
8653;BME280;4364;52.426;9.424;2023-04-20T03:02:21;101479.38;;;5.35;83.01
8653;BME280;4364;52.426;9.424;2023-04-20T03:04:49;101477.56;;;5.29;83.40
8653;BME280;4364;52.426;9.424;2023-04-20T03:07:19;101481.72;;;5.31;83.75
8653;BME280;4364;52.426;9.424;2023-04-20T03:09:47;101475.03;;;5.34;83.74
8653;BME280;4364;52.426;9.424;2023-04-20T03:12:34;101473.47;;;5.45;82.88
8653;BME280;4364;52.426;9.424;2023-04-20T03:15:13;101475.56;;;5.43;83.19
8653;BME280;4364;52.426;9.424;2023-04-20T03:18:01;101473.28;;;5.39;83.80
8653;BME280;4364;52.426;9.424;2023-04-20T03:20:28;101476.06;;;5.33;83.80
8653;BME280;4364;52.426;9.424;2023-04-20T03:22:54;101474.66;;;5.30;84.45
8653;BME280;4364;52.426;9.424;2023-04-20T03:25:23;101475.09;;;5.27;84.94
8653;BME280;4364;52.426;9.424;2023-04-20T03:27:53;101469.09;;;5.25;84.49
8653;BME280;4364;52.426;9.424;2023-04-20T03:30:20;101470.28;;;5.29;84.55
8653;BME280;4364;52.426;9.424;2023-04-20T03:32:52;101472.78;;;5.31;84.83
8653;BME280;4364;52.426;9.424;2023-04-20T03:35:19;101479.50;;;5.22;85.36
8653;BME280;4364;52.426;9.424;2023-04-20T03:37:46;101476.38;;;5.25;85.19
8653;BME280;4364;52.426;9.424;2023-04-20T03:40:13;101473.84;;;5.30;85.00
8653;BME280;4364;52.426;9.424;2023-04-20T03:42:40;101472.84;;;5.24;85.15
8653;BME280;4364;52.426;9.424;2023-04-20T03:45:06;101479.59;;;5.33;84.98
8653;BME280;4364;52.426;9.424;2023-04-20T03:47:33;101476.25;;;5.38;84.78
8653;BME280;4364;52.426;9.424;2023-04-20T03:50:00;101477.50;;;5.35;85.46
8653;BME280;4364;52.426;9.424;2023-04-20T03:52:26;101470.66;;;5.33;84.68
8653;BME280;4364;52.426;9.424;2023-04-20T03:54:53;101480.56;;;5.39;84.90
8653;BME280;4364;52.426;9.424;2023-04-20T03:57:20;101480.28;;;5.47;84.52
8653;BME280;4364;52.426;9.424;2023-04-20T03:59:46;101479.75;;;5.38;84.71
8653;BME280;4364;52.426;9.424;2023-04-20T04:02:16;101473.63;;;5.50;84.48
8653;BME280;4364;52.426;9.424;2023-04-20T04:04:45;101471.59;;;5.45;84.43
8653;BME280;4364;52.426;9.424;2023-04-20T04:07:12;101467.53;;;5.54;84.20
8653;BME280;4364;52.426;9.424;2023-04-20T04:09:40;101469.34;;;5.42;84.44
8653;BME280;4364;52.426;9.424;2023-04-20T04:12:08;101472.56;;;5.51;84.81
8653;BME280;4364;52.426;9.424;2023-04-20T04:14:34;101470.94;;;5.50;84.19
8653;BME280;4364;52.426;9.424;2023-04-20T04:17:01;101474.88;;;5.47;84.43
8653;BME280;4364;52.426;9.424;2023-04-20T04:19:29;101471.16;;;5.48;84.72
8653;BME280;4364;52.426;9.424;2023-04-20T04:21:56;101479.84;;;5.50;84.72
8653;BME280;4364;52.426;9.424;2023-04-20T04:24:23;101469.72;;;5.46;84.72
8653;BME280;4364;52.426;9.424;2023-04-20T04:26:57;101471.44;;;5.40;85.38
8653;BME280;4364;52.426;9.424;2023-04-20T04:29:26;101472.47;;;5.39;85.70
8653;BME280;4364;52.426;9.424;2023-04-20T04:31:56;101481.16;;;5.41;85.12
8653;BME280;4364;52.426;9.424;2023-04-20T04:34:24;101476.47;;;5.36;85.59
8653;BME280;4364;52.426;9.424;2023-04-20T04:36:54;101482.47;;;5.38;85.59
8653;BME280;4364;52.426;9.424;2023-04-20T04:39:30;101482.31;;;5.33;86.46
8653;BME280;4364;52.426;9.424;2023-04-20T04:42:08;101479.47;;;5.47;85.90
8653;BME280;4364;52.426;9.424;2023-04-20T04:44:39;101483.66;;;5.43;86.15
8653;BME280;4364;52.426;9.424;2023-04-20T04:47:09;101479.75;;;5.38;86.01
8653;BME280;4364;52.426;9.424;2023-04-20T04:49:37;101475.25;;;5.51;86.00
8653;BME280;4364;52.426;9.424;2023-04-20T04:52:07;101477.59;;;5.47;85.88
8653;BME280;4364;52.426;9.424;2023-04-20T04:54:34;101480.34;;;5.41;86.34
8653;BME280;4364;52.426;9.424;2023-04-20T04:57:01;101484.94;;;5.40;86.61
8653;BME280;4364;52.426;9.424;2023-04-20T04:59:27;101480.72;;;5.44;86.49
8653;BME280;4364;52.426;9.424;2023-04-20T05:01:54;101477.38;;;5.49;86.58
8653;BME280;4364;52.426;9.424;2023-04-20T05:04:20;101478.56;;;5.53;86.34
8653;BME280;4364;52.426;9.424;2023-04-20T05:06:47;101485.31;;;5.44;86.25
8653;BME280;4364;52.426;9.424;2023-04-20T05:09:14;101490.34;;;5.59;86.14
8653;BME280;4364;52.426;9.424;2023-04-20T05:11:42;101483.13;;;5.52;86.14
8653;BME280;4364;52.426;9.424;2023-04-20T05:14:08;101486.06;;;5.51;86.17
8653;BME280;4364;52.426;9.424;2023-04-20T05:16:35;101484.56;;;5.55;86.56
8653;BME280;4364;52.426;9.424;2023-04-20T05:19:01;101486.06;;;5.51;86.24
8653;BME280;4364;52.426;9.424;2023-04-20T05:21:29;101486.72;;;5.46;86.75
8653;BME280;4364;52.426;9.424;2023-04-20T05:23:56;101497.34;;;5.41;87.68
8653;BME280;4364;52.426;9.424;2023-04-20T05:26:22;101495.81;;;5.52;87.11
8653;BME280;4364;52.426;9.424;2023-04-20T05:28:48;101495.00;;;5.51;87.25
8653;BME280;4364;52.426;9.424;2023-04-20T05:31:16;101489.59;;;5.51;87.40
8653;BME280;4364;52.426;9.424;2023-04-20T05:33:43;101496.63;;;5.52;87.59
8653;BME280;4364;52.426;9.424;2023-04-20T05:36:10;101496.63;;;5.52;87.42
8653;BME280;4364;52.426;9.424;2023-04-20T05:38:36;101502.47;;;5.49;87.97
8653;BME280;4364;52.426;9.424;2023-04-20T05:41:03;101485.75;;;5.41;88.11
8653;BME280;4364;52.426;9.424;2023-04-20T05:43:30;101504.56;;;5.47;88.14
8653;BME280;4364;52.426;9.424;2023-04-20T05:45:56;101502.03;;;5.52;87.80
8653;BME280;4364;52.426;9.424;2023-04-20T05:48:23;101507.84;;;5.49;88.46
8653;BME280;4364;52.426;9.424;2023-04-20T05:50:55;101505.09;;;5.56;87.82
8653;BME280;4364;52.426;9.424;2023-04-20T05:53:21;101510.41;;;5.63;87.76
8653;BME280;4364;52.426;9.424;2023-04-20T05:55:48;101504.06;;;5.57;87.53
8653;BME280;4364;52.426;9.424;2023-04-20T05:58:15;101512.66;;;5.66;88.02
8653;BME280;4364;52.426;9.424;2023-04-20T06:00:42;101514.13;;;5.68;87.53
8653;BME280;4364;52.426;9.424;2023-04-20T06:03:09;101505.31;;;5.73;86.89
8653;BME280;4364;52.426;9.424;2023-04-20T06:05:36;101514.84;;;5.75;87.40
8653;BME280;4364;52.426;9.424;2023-04-20T06:08:03;101502.72;;;5.85;86.83
8653;BME280;4364;52.426;9.424;2023-04-20T06:10:29;101494.69;;;5.78;87.00
8653;BME280;4364;52.426;9.424;2023-04-20T06:12:57;101503.47;;;5.73;87.03
8653;BME280;4364;52.426;9.424;2023-04-20T06:15:24;101510.06;;;5.78;87.47
8653;BME280;4364;52.426;9.424;2023-04-20T06:17:50;101503.63;;;5.79;87.79
8653;BME280;4364;52.426;9.424;2023-04-20T06:20:17;101500.13;;;5.97;86.63
8653;BME280;4364;52.426;9.424;2023-04-20T06:22:45;101498.88;;;5.92;87.07
8653;BME280;4364;52.426;9.424;2023-04-20T06:25:12;101504.16;;;6.06;85.91
8653;BME280;4364;52.426;9.424;2023-04-20T06:27:41;101489.97;;;6.10;85.63
8653;BME280;4364;52.426;9.424;2023-04-20T06:30:08;101496.69;;;6.20;85.42
8653;BME280;4364;52.426;9.424;2023-04-20T06:32:35;101493.09;;;6.26;85.45
8653;BME280;4364;52.426;9.424;2023-04-20T06:35:04;101494.56;;;6.40;84.89
8653;BME280;4364;52.426;9.424;2023-04-20T06:37:30;101499.97;;;6.40;84.50
8653;BME280;4364;52.426;9.424;2023-04-20T06:39:57;101498.41;;;6.33;85.02
8653;BME280;4364;52.426;9.424;2023-04-20T06:42:23;101492.22;;;6.44;84.36
8653;BME280;4364;52.426;9.424;2023-04-20T06:44:50;101497.50;;;6.39;84.19
8653;BME280;4364;52.426;9.424;2023-04-20T06:47:16;101505.84;;;6.49;84.01
8653;BME280;4364;52.426;9.424;2023-04-20T06:49:43;101493.31;;;6.66;83.03
8653;BME280;4364;52.426;9.424;2023-04-20T06:52:10;101499.13;;;6.70;82.79
8653;BME280;4364;52.426;9.424;2023-04-20T06:54:36;101497.03;;;6.84;81.77
8653;BME280;4364;52.426;9.424;2023-04-20T06:57:03;101502.09;;;6.92;80.99
8653;BME280;4364;52.426;9.424;2023-04-20T06:59:29;101494.91;;;6.98;80.91
8653;BME280;4364;52.426;9.424;2023-04-20T07:01:55;101493.66;;;7.00;80.60
8653;BME280;4364;52.426;9.424;2023-04-20T07:04:22;101499.16;;;6.94;80.41
8653;BME280;4364;52.426;9.424;2023-04-20T07:06:48;101503.25;;;6.96;80.18
8653;BME280;4364;52.426;9.424;2023-04-20T07:09:20;101496.56;;;6.99;80.23
8653;BME280;4364;52.426;9.424;2023-04-20T07:11:48;101495.75;;;6.98;80.19
8653;BME280;4364;52.426;9.424;2023-04-20T07:14:15;101507.84;;;6.96;80.25
8653;BME280;4364;52.426;9.424;2023-04-20T07:16:42;101504.47;;;7.00;79.85
8653;BME280;4364;52.426;9.424;2023-04-20T07:19:09;101511.25;;;6.91;80.77
8653;BME280;4364;52.426;9.424;2023-04-20T07:21:35;101511.84;;;6.93;80.20
8653;BME280;4364;52.426;9.424;2023-04-20T07:24:02;101515.28;;;7.00;80.28
8653;BME280;4364;52.426;9.424;2023-04-20T07:26:28;101502.44;;;6.96;79.92
8653;BME280;4364;52.426;9.424;2023-04-20T07:28:55;101508.56;;;7.03;79.26
8653;BME280;4364;52.426;9.424;2023-04-20T07:31:21;101509.03;;;7.00;79.31
8653;BME280;4364;52.426;9.424;2023-04-20T07:33:48;101511.03;;;7.04;79.72
8653;BME280;4364;52.426;9.424;2023-04-20T07:36:14;101513.16;;;7.14;79.11
8653;BME280;4364;52.426;9.424;2023-04-20T07:38:42;101512.94;;;7.04;79.29
8653;BME280;4364;52.426;9.424;2023-04-20T07:41:12;101513.38;;;7.01;80.41
8653;BME280;4364;52.426;9.424;2023-04-20T07:43:48;101518.09;;;7.05;80.11
8653;BME280;4364;52.426;9.424;2023-04-20T07:46:20;101518.56;;;7.02;80.04
8653;BME280;4364;52.426;9.424;2023-04-20T07:48:47;101519.50;;;6.96;79.69
8653;BME280;4364;52.426;9.424;2023-04-20T07:51:14;101519.94;;;6.93;79.77
8653;BME280;4364;52.426;9.424;2023-04-20T07:53:43;101517.13;;;6.88;80.14
8653;BME280;4364;52.426;9.424;2023-04-20T07:56:09;101519.69;;;6.83;80.79
8653;BME280;4364;52.426;9.424;2023-04-20T07:58:35;101515.03;;;6.90;80.29
8653;BME280;4364;52.426;9.424;2023-04-20T08:01:04;101511.03;;;7.04;80.45
8653;BME280;4364;52.426;9.424;2023-04-20T08:03:31;101514.84;;;7.27;79.75
8653;BME280;4364;52.426;9.424;2023-04-20T08:05:59;101524.00;;;7.50;78.22
8653;BME280;4364;52.426;9.424;2023-04-20T08:08:25;101518.94;;;7.65;77.48
8653;BME280;4364;52.426;9.424;2023-04-20T08:10:52;101528.47;;;7.68;77.07
8653;BME280;4364;52.426;9.424;2023-04-20T08:13:18;101526.44;;;7.75;75.80
8653;BME280;4364;52.426;9.424;2023-04-20T08:15:45;101520.47;;;7.61;76.32
8653;BME280;4364;52.426;9.424;2023-04-20T08:18:11;101528.00;;;7.59;76.66
8653;BME280;4364;52.426;9.424;2023-04-20T08:20:38;101527.19;;;7.58;76.04
8653;BME280;4364;52.426;9.424;2023-04-20T08:23:05;101513.53;;;7.65;75.82
8653;BME280;4364;52.426;9.424;2023-04-20T08:25:31;101522.81;;;7.69;74.86
8653;BME280;4364;52.426;9.424;2023-04-20T08:27:58;101535.41;;;7.75;74.77
8653;BME280;4364;52.426;9.424;2023-04-20T08:30:25;101528.53;;;7.85;73.74
8653;BME280;4364;52.426;9.424;2023-04-20T08:32:52;101532.78;;;7.92;73.19
8653;BME280;4364;52.426;9.424;2023-04-20T08:35:19;101530.63;;;8.06;73.17
8653;BME280;4364;52.426;9.424;2023-04-20T08:37:45;101529.13;;;7.87;73.67
8653;BME280;4364;52.426;9.424;2023-04-20T08:40:12;101527.50;;;7.86;74.23
8653;BME280;4364;52.426;9.424;2023-04-20T08:42:38;101531.59;;;7.88;73.57
8653;BME280;4364;52.426;9.424;2023-04-20T08:45:05;101527.56;;;8.03;73.26
8653;BME280;4364;52.426;9.424;2023-04-20T08:47:32;101521.53;;;8.12;72.93
8653;BME280;4364;52.426;9.424;2023-04-20T08:49:59;101521.13;;;8.32;72.31
8653;BME280;4364;52.426;9.424;2023-04-20T08:52:29;101525.31;;;8.40;70.88
8653;BME280;4364;52.426;9.424;2023-04-20T08:54:55;101531.94;;;8.44;70.75
8653;BME280;4364;52.426;9.424;2023-04-20T08:57:24;101520.97;;;8.39;70.22
8653;BME280;4364;52.426;9.424;2023-04-20T08:59:51;101527.34;;;8.33;69.63
8653;BME280;4364;52.426;9.424;2023-04-20T09:02:17;101534.03;;;8.42;70.07
8653;BME280;4364;52.426;9.424;2023-04-20T09:04:44;101527.56;;;8.43;69.54
8653;BME280;4364;52.426;9.424;2023-04-20T09:07:19;101520.31;;;8.61;68.68
8653;BME280;4364;52.426;9.424;2023-04-20T09:09:53;101526.34;;;8.80;68.06
8653;BME280;4364;52.426;9.424;2023-04-20T09:12:20;101515.50;;;8.80;66.84
8653;BME280;4364;52.426;9.424;2023-04-20T09:14:48;101526.41;;;8.68;66.18
8653;BME280;4364;52.426;9.424;2023-04-20T09:17:15;101534.88;;;8.71;66.71
8653;BME280;4364;52.426;9.424;2023-04-20T09:19:44;101530.97;;;8.96;66.02
8653;BME280;4364;52.426;9.424;2023-04-20T09:22:11;101521.00;;;9.02;64.81
8653;BME280;4364;52.426;9.424;2023-04-20T09:24:39;101533.59;;;9.08;64.43
8653;BME280;4364;52.426;9.424;2023-04-20T09:27:16;101534.94;;;9.05;63.56
8653;BME280;4364;52.426;9.424;2023-04-20T09:29:45;101533.03;;;9.06;63.27
8653;BME280;4364;52.426;9.424;2023-04-20T09:32:22;101533.91;;;9.12;63.47
8653;BME280;4364;52.426;9.424;2023-04-20T09:34:49;101533.75;;;9.18;64.19
8653;BME280;4364;52.426;9.424;2023-04-20T09:37:16;101540.81;;;9.36;62.72
8653;BME280;4364;52.426;9.424;2023-04-20T09:39:44;101533.25;;;9.38;62.49
8653;BME280;4364;52.426;9.424;2023-04-20T09:42:12;101548.50;;;9.22;62.57
8653;BME280;4364;52.426;9.424;2023-04-20T09:44:39;101534.34;;;9.37;61.77
8653;BME280;4364;52.426;9.424;2023-04-20T09:47:06;101534.25;;;9.32;61.32
8653;BME280;4364;52.426;9.424;2023-04-20T09:49:34;101533.59;;;9.25;60.84
8653;BME280;4364;52.426;9.424;2023-04-20T09:52:02;101547.56;;;9.17;61.24
8653;BME280;4364;52.426;9.424;2023-04-20T09:54:29;101548.00;;;9.25;61.23
8653;BME280;4364;52.426;9.424;2023-04-20T09:56:59;101541.31;;;9.16;60.33
8653;BME280;4364;52.426;9.424;2023-04-20T09:59:26;101544.19;;;9.26;59.86
8653;BME280;4364;52.426;9.424;2023-04-20T10:01:54;101536.13;;;9.49;58.63
8653;BME280;4364;52.426;9.424;2023-04-20T10:04:22;101541.25;;;9.67;58.35
8653;BME280;4364;52.426;9.424;2023-04-20T10:06:54;101539.28;;;9.79;57.35
8653;BME280;4364;52.426;9.424;2023-04-20T10:09:22;101540.91;;;9.80;57.33
8653;BME280;4364;52.426;9.424;2023-04-20T10:11:51;101537.31;;;9.75;57.57
8653;BME280;4364;52.426;9.424;2023-04-20T10:14:24;101533.53;;;9.76;56.86
8653;BME280;4364;52.426;9.424;2023-04-20T10:17:03;101533.53;;;9.76;56.75
8653;BME280;4364;52.426;9.424;2023-04-20T10:19:44;101534.47;;;9.64;57.84
8653;BME280;4364;52.426;9.424;2023-04-20T10:22:23;101541.25;;;9.67;57.41
8653;BME280;4364;52.426;9.424;2023-04-20T10:24:50;101538.19;;;9.80;56.48
8653;BME280;4364;52.426;9.424;2023-04-20T10:27:20;101545.78;;;10.00;56.09
8653;BME280;4364;52.426;9.424;2023-04-20T10:29:47;101533.59;;;10.03;55.52
8653;BME280;4364;52.426;9.424;2023-04-20T10:34:47;101528.47;;;10.29;53.74
8653;BME280;4364;52.426;9.424;2023-04-20T10:37:14;101537.41;;;10.24;53.27
8653;BME280;4364;52.426;9.424;2023-04-20T10:39:47;101528.69;;;10.44;53.03
8653;BME280;4364;52.426;9.424;2023-04-20T10:42:13;101522.19;;;10.50;52.06
8653;BME280;4364;52.426;9.424;2023-04-20T10:44:50;101528.56;;;10.61;51.64
8653;BME280;4364;52.426;9.424;2023-04-20T10:47:25;101526.06;;;10.54;51.68
8653;BME280;4364;52.426;9.424;2023-04-20T10:49:52;101522.44;;;10.49;51.57
8653;BME280;4364;52.426;9.424;2023-04-20T10:52:39;101524.09;;;10.50;51.31
8653;BME280;4364;52.426;9.424;2023-04-20T10:55:18;101513.56;;;10.59;51.30
8653;BME280;4364;52.426;9.424;2023-04-20T10:57:44;101519.81;;;10.59;50.76
8653;BME280;4364;52.426;9.424;2023-04-20T11:02:47;101517.09;;;11.19;48.81
8653;BME280;4364;52.426;9.424;2023-04-20T11:05:15;101527.81;;;11.36;49.03
8653;BME280;4364;52.426;9.424;2023-04-20T11:07:53;101514.78;;;11.38;48.20
8653;BME280;4364;52.426;9.424;2023-04-20T11:10:21;101512.72;;;11.60;47.63
8653;BME280;4364;52.426;9.424;2023-04-20T11:12:48;101520.16;;;11.75;47.75
8653;BME280;4364;52.426;9.424;2023-04-20T11:15:14;101525.28;;;12.19;46.75
8653;BME280;4364;52.426;9.424;2023-04-20T11:17:42;101526.38;;;12.13;48.76
8653;BME280;4364;52.426;9.424;2023-04-20T11:20:13;101522.09;;;11.80;50.14
8653;BME280;4364;52.426;9.424;2023-04-20T11:22:41;101522.75;;;11.49;51.21
8653;BME280;4364;52.426;9.424;2023-04-20T11:25:09;101515.06;;;11.04;51.89
8653;BME280;4364;52.426;9.424;2023-04-20T11:27:37;101513.78;;;10.52;53.23
8653;BME280;4364;52.426;9.424;2023-04-20T11:30:05;101522.16;;;10.45;54.35
8653;BME280;4364;52.426;9.424;2023-04-20T11:32:33;101508.66;;;10.55;54.35
8653;BME280;4364;52.426;9.424;2023-04-20T11:35:03;101506.94;;;10.77;54.01
8653;BME280;4364;52.426;9.424;2023-04-20T11:37:49;101508.31;;;10.79;54.00
8653;BME280;4364;52.426;9.424;2023-04-20T11:40:19;101509.69;;;10.77;53.57
8653;BME280;4364;52.426;9.424;2023-04-20T11:42:46;101502.72;;;10.91;52.15
8653;BME280;4364;52.426;9.424;2023-04-20T11:45:13;101503.03;;;10.94;52.20
8653;BME280;4364;52.426;9.424;2023-04-20T11:47:39;101487.78;;;10.93;51.61
8653;BME280;4364;52.426;9.424;2023-04-20T11:50:06;101496.75;;;10.94;51.73
8653;BME280;4364;52.426;9.424;2023-04-20T11:52:34;101485.81;;;10.89;50.98
8653;BME280;4364;52.426;9.424;2023-04-20T11:55:00;101482.81;;;10.85;51.80
8653;BME280;4364;52.426;9.424;2023-04-20T11:57:27;101485.88;;;10.94;51.05
8653;BME280;4364;52.426;9.424;2023-04-20T11:59:54;101478.63;;;11.05;51.11
8653;BME280;4364;52.426;9.424;2023-04-20T12:02:20;101467.56;;;11.22;50.26
8653;BME280;4364;52.426;9.424;2023-04-20T12:04:48;101467.34;;;11.86;49.63
8653;BME280;4364;52.426;9.424;2023-04-20T12:07:14;101459.91;;;12.40;47.34
8653;BME280;4364;52.426;9.424;2023-04-20T12:09:41;101462.09;;;12.79;46.54
8653;BME280;4364;52.426;9.424;2023-04-20T12:12:08;101460.69;;;13.12;45.74
8653;BME280;4364;52.426;9.424;2023-04-20T12:14:35;101459.09;;;12.60;47.55
8653;BME280;4364;52.426;9.424;2023-04-20T12:17:02;101462.91;;;12.64;48.79
8653;BME280;4364;52.426;9.424;2023-04-20T12:19:30;101464.22;;;12.31;49.22
8653;BME280;4364;52.426;9.424;2023-04-20T12:21:56;101461.97;;;11.92;49.84
8653;BME280;4364;52.426;9.424;2023-04-20T12:24:23;101458.91;;;11.88;50.06
8653;BME280;4364;52.426;9.424;2023-04-20T12:26:49;101458.91;;;11.83;50.98
8653;BME280;4364;52.426;9.424;2023-04-20T12:29:16;101463.50;;;11.82;50.33
8653;BME280;4364;52.426;9.424;2023-04-20T12:31:43;101458.13;;;11.93;49.81
8653;BME280;4364;52.426;9.424;2023-04-20T12:34:10;101450.75;;;11.88;49.24
8653;BME280;4364;52.426;9.424;2023-04-20T12:36:37;101445.59;;;11.92;49.33
8653;BME280;4364;52.426;9.424;2023-04-20T12:39:03;101437.72;;;11.95;48.67
8653;BME280;4364;52.426;9.424;2023-04-20T12:41:30;101432.22;;;11.90;48.93
8653;BME280;4364;52.426;9.424;2023-04-20T12:43:56;101438.44;;;11.75;48.70
8653;BME280;4364;52.426;9.424;2023-04-20T12:46:23;101427.28;;;11.82;47.58
8653;BME280;4364;52.426;9.424;2023-04-20T12:48:50;101431.66;;;11.88;47.39
8653;BME280;4364;52.426;9.424;2023-04-20T12:51:17;101421.88;;;11.92;47.11
8653;BME280;4364;52.426;9.424;2023-04-20T12:53:43;101430.25;;;11.80;47.67
8653;BME280;4364;52.426;9.424;2023-04-20T12:56:10;101425.75;;;12.01;47.21
8653;BME280;4364;52.426;9.424;2023-04-20T12:58:36;101429.00;;;12.03;46.84
8653;BME280;4364;52.426;9.424;2023-04-20T13:01:03;101423.31;;;12.31;46.13
8653;BME280;4364;52.426;9.424;2023-04-20T13:03:29;101422.25;;;12.32;47.30
8653;BME280;4364;52.426;9.424;2023-04-20T13:05:57;101416.81;;;12.47;45.94
8653;BME280;4364;52.426;9.424;2023-04-20T13:08:24;101405.88;;;12.32;46.09
8653;BME280;4364;52.426;9.424;2023-04-20T13:10:50;101411.34;;;12.21;46.74
8653;BME280;4364;52.426;9.424;2023-04-20T13:13:16;101413.53;;;12.35;46.65
8653;BME280;4364;52.426;9.424;2023-04-20T13:15:43;101414.34;;;12.35;46.66
8653;BME280;4364;52.426;9.424;2023-04-20T13:18:09;101415.72;;;12.69;47.29
8653;BME280;4364;52.426;9.424;2023-04-20T13:20:36;101419.25;;;12.74;46.33
8653;BME280;4364;52.426;9.424;2023-04-20T13:23:04;101416.53;;;12.64;46.67
8653;BME280;4364;52.426;9.424;2023-04-20T13:25:32;101415.97;;;12.83;45.88
8653;BME280;4364;52.426;9.424;2023-04-20T13:28:03;101409.44;;;12.73;45.71